createdAt,value
2016-11-12T00:00:09.163Z,1.6
2016-11-12T00:00:19.141Z,1.6
2016-11-12T00:00:29.135Z,1.6
2016-11-12T00:00:39.128Z,1.6
2016-11-12T00:00:49.123Z,1.6
2016-11-12T00:00:59.116Z,1.6
2016-11-12T00:01:09.105Z,1.6
2016-11-12T00:01:19.105Z,1.6
2016-11-12T00:01:29.115Z,1.6
2016-11-12T00:01:39.087Z,1.6
2016-11-12T00:01:49.083Z,1.6
2016-11-12T00:01:59.074Z,1.6
2016-11-12T00:02:09.068Z,1.6
2016-11-12T00:02:19.061Z,1.6
2016-11-12T00:02:29.054Z,1.6
2016-11-12T00:02:39.048Z,1.6
2016-11-12T00:02:49.041Z,1.6
2016-11-12T00:02:59.035Z,1.6
2016-11-12T00:03:09.027Z,1.6
2016-11-12T00:03:19.027Z,1.6
2016-11-12T00:03:29.017Z,1.6
2016-11-12T00:03:39.009Z,1.6
2016-11-12T00:03:49.001Z,1.6
2016-11-12T00:03:58.998Z,1.6
2016-11-12T00:04:08.989Z,1.6
2016-11-12T00:04:18.980Z,1.6
2016-11-12T00:04:28.978Z,1.6
2016-11-12T00:04:38.966Z,1.6
2016-11-12T00:04:48.962Z,1.6
2016-11-12T00:04:58.955Z,1.6
2016-11-12T00:05:08.948Z,1.6
2016-11-12T00:05:18.941Z,1.5
2016-11-12T00:05:28.937Z,1.5
2016-11-12T00:05:38.928Z,1.5
2016-11-12T00:05:48.923Z,1.5
2016-11-12T00:05:58.914Z,1.5
2016-11-12T00:06:08.907Z,1.5
2016-11-12T00:06:18.900Z,1.5
2016-11-12T00:06:28.894Z,1.5
2016-11-12T00:06:38.888Z,1.4
2016-11-12T00:06:48.879Z,1.4
2016-11-12T00:06:58.875Z,1.4
2016-11-12T00:07:08.867Z,1.4
2016-11-12T00:07:18.861Z,1.4
2016-11-12T00:07:28.853Z,1.4
2016-11-12T00:07:38.847Z,1.4
2016-11-12T00:07:48.839Z,1.4
2016-11-12T00:07:58.833Z,1.5
2016-11-12T00:08:08.831Z,1.4
2016-11-12T00:08:18.821Z,1.4
2016-11-12T00:08:28.815Z,1.4
2016-11-12T00:08:38.807Z,1.4
2016-11-12T00:08:48.800Z,1.4
2016-11-12T00:08:58.793Z,1.4
2016-11-12T00:09:08.786Z,1.4
2016-11-12T00:09:18.781Z,1.4
2016-11-12T00:09:29.108Z,1.4
2016-11-12T00:09:38.767Z,1.4
2016-11-12T00:09:48.762Z,1.4
2016-11-12T00:09:58.754Z,1.4
2016-11-12T00:10:08.746Z,1.4
2016-11-12T00:10:18.739Z,1.4
2016-11-12T00:10:28.732Z,1.4
2016-11-12T00:10:38.725Z,1.4
2016-11-12T00:10:48.721Z,1.3
2016-11-12T00:10:58.714Z,1.3
2016-11-12T00:11:08.707Z,1.3
2016-11-12T00:11:18.699Z,1.3
2016-11-12T00:11:28.693Z,1.3
2016-11-12T00:11:38.686Z,1.3
2016-11-12T00:11:48.680Z,1.3
2016-11-12T00:11:58.673Z,1.4
2016-11-12T00:12:08.666Z,1.3
2016-11-12T00:12:18.660Z,1.3
2016-11-12T00:12:28.654Z,1.3
2016-11-12T00:12:38.645Z,1.3
2016-11-12T00:12:48.639Z,1.3
2016-11-12T00:12:58.634Z,1.3
2016-11-12T00:13:08.626Z,1.3
2016-11-12T00:13:18.619Z,1.3
2016-11-12T00:13:28.613Z,1.3
2016-11-12T00:13:38.604Z,1.3
2016-11-12T00:13:48.601Z,1.3
2016-11-12T00:13:58.594Z,1.3
2016-11-12T00:14:08.922Z,1.3
2016-11-12T00:14:18.581Z,1.3
2016-11-12T00:14:28.572Z,1.3
2016-11-12T00:14:38.567Z,1.3
2016-11-12T00:14:48.562Z,1.3
2016-11-12T00:14:58.554Z,1.3
2016-11-12T00:15:08.544Z,1.3
2016-11-12T00:15:18.540Z,1.3
2016-11-12T00:15:28.532Z,1.3
2016-11-12T00:15:38.523Z,1.3
2016-11-12T00:15:48.518Z,1.3
2016-11-12T00:15:58.512Z,1.3
2016-11-12T00:16:08.504Z,1.3
2016-11-12T00:16:18.497Z,1.3
2016-11-12T00:16:28.491Z,1.3
2016-11-12T00:16:38.487Z,1.3
2016-11-12T00:16:48.479Z,1.3
2016-11-12T00:16:58.471Z,1.3
2016-11-12T00:17:08.465Z,1.3
2016-11-12T00:17:18.459Z,1.3
2016-11-12T00:17:28.453Z,1.3
2016-11-12T00:17:38.446Z,1.3
2016-11-12T00:17:48.440Z,1.3
2016-11-12T00:17:58.431Z,1.3
2016-11-12T00:18:08.424Z,1.3
2016-11-12T00:18:18.419Z,1.3
2016-11-12T00:18:28.410Z,1.3
2016-11-12T00:18:38.405Z,1.3
2016-11-12T00:18:48.399Z,1.3
2016-11-12T00:18:58.392Z,1.3
2016-11-12T00:19:08.387Z,1.3
2016-11-12T00:19:18.715Z,1.3
2016-11-12T00:19:28.371Z,1.3
2016-11-12T00:19:38.365Z,1.3
2016-11-12T00:19:48.355Z,1.3
2016-11-12T00:19:58.351Z,1.3
2016-11-12T00:20:08.679Z,1.3
2016-11-12T00:20:18.340Z,1.3
2016-11-12T00:20:28.332Z,1.3
2016-11-12T00:20:38.323Z,1.3
2016-11-12T00:20:48.316Z,1.3
2016-11-12T00:20:58.311Z,1.3
2016-11-12T00:21:08.303Z,1.3
2016-11-12T00:21:18.297Z,1.3
2016-11-12T00:21:28.290Z,1.3
2016-11-12T00:21:38.284Z,1.3
2016-11-12T00:21:48.277Z,1.4
2016-11-12T00:21:58.271Z,1.3
2016-11-12T00:22:08.263Z,1.4
2016-11-12T00:22:18.276Z,1.4
2016-11-12T00:22:28.252Z,1.4
2016-11-12T00:22:38.244Z,1.4
2016-11-12T00:22:48.239Z,1.4
2016-11-12T00:22:58.230Z,1.4
2016-11-12T00:23:08.223Z,1.4
2016-11-12T00:23:18.216Z,1.4
2016-11-12T00:23:28.211Z,1.3
2016-11-12T00:23:38.225Z,1.3
2016-11-12T00:23:48.195Z,1.3
2016-11-12T00:23:58.189Z,1.3
2016-11-12T00:24:08.184Z,1.4
2016-11-12T00:24:18.174Z,1.3
2016-11-12T00:24:28.171Z,1.3
2016-11-12T00:24:38.193Z,1.3
2016-11-12T00:24:48.156Z,1.3
2016-11-12T00:24:58.149Z,1.3
2016-11-12T00:25:08.143Z,1.3
2016-11-12T00:25:18.135Z,1.3
2016-11-12T00:25:28.129Z,1.3
2016-11-12T00:25:38.123Z,1.3
2016-11-12T00:25:48.116Z,1.3
2016-11-12T00:25:58.110Z,1.3
2016-11-12T00:26:08.142Z,1.3
2016-11-12T00:26:18.433Z,1.3
2016-11-12T00:26:28.091Z,1.3
2016-11-12T00:26:38.083Z,1.3
2016-11-12T00:26:48.076Z,1.3
2016-11-12T00:26:58.070Z,1.3
2016-11-12T00:27:08.065Z,1.3
2016-11-12T00:27:18.056Z,1.3
2016-11-12T00:27:28.048Z,1.3
2016-11-12T00:27:38.041Z,1.3
2016-11-12T00:27:48.035Z,1.3
2016-11-12T00:27:58.045Z,1.3
2016-11-12T00:28:08.025Z,1.2
2016-11-12T00:28:18.014Z,1.2
2016-11-12T00:28:28.008Z,1.2
2016-11-12T00:28:38.001Z,1.3
2016-11-12T00:28:47.996Z,1.2
2016-11-12T00:28:57.990Z,1.2
2016-11-12T00:29:08.015Z,1.2
2016-11-12T00:29:17.976Z,1.2
2016-11-12T00:29:27.970Z,1.2
2016-11-12T00:29:37.961Z,1.2
2016-11-12T00:29:47.956Z,1.2
2016-11-12T00:29:57.947Z,1.2
2016-11-12T00:30:07.942Z,1.2
2016-11-12T00:30:17.936Z,1.2
2016-11-12T00:30:27.926Z,1.2
2016-11-12T00:30:37.921Z,1.2
2016-11-12T00:30:47.915Z,1.2
2016-11-12T00:30:58.011Z,1.2
2016-11-12T00:31:07.901Z,1.2
2016-11-12T00:31:18.228Z,1.2
2016-11-12T00:31:27.886Z,1.2
2016-11-12T00:31:37.880Z,1.2
2016-11-12T00:31:47.875Z,1.2
2016-11-12T00:31:57.868Z,1.2
2016-11-12T00:32:07.862Z,1.2
2016-11-12T00:32:17.854Z,1.2
2016-11-12T00:32:27.848Z,1.2
2016-11-12T00:32:37.840Z,1.2
2016-11-12T00:32:47.836Z,1.2
2016-11-12T00:32:57.827Z,1.2
2016-11-12T00:33:07.820Z,1.2
2016-11-12T00:33:17.814Z,1.2
2016-11-12T00:33:27.809Z,1.2
2016-11-12T00:33:37.801Z,1.2
2016-11-12T00:33:47.794Z,1.2
2016-11-12T00:33:57.786Z,1.2
2016-11-12T00:34:08.115Z,1.3
2016-11-12T00:34:17.774Z,1.3
2016-11-12T00:34:27.768Z,1.3
2016-11-12T00:34:37.866Z,1.3
2016-11-12T00:34:47.755Z,1.2
2016-11-12T00:34:57.748Z,1.2
2016-11-12T00:35:07.741Z,1.2
2016-11-12T00:35:17.734Z,1.2
2016-11-12T00:35:27.726Z,1.2
2016-11-12T00:35:37.721Z,1.2
2016-11-12T00:35:47.712Z,1.2
2016-11-12T00:35:57.707Z,1.2
2016-11-12T00:36:07.700Z,1.3
2016-11-12T00:36:18.029Z,1.3
2016-11-12T00:36:28.020Z,1.3
2016-11-12T00:36:37.678Z,1.2
2016-11-12T00:36:47.673Z,1.2
2016-11-12T00:36:57.665Z,1.2
2016-11-12T00:37:07.658Z,1.2
2016-11-12T00:37:17.653Z,1.2
2016-11-12T00:37:27.647Z,1.2
2016-11-12T00:37:37.638Z,1.2
2016-11-12T00:37:47.631Z,1.2
2016-11-12T00:37:57.626Z,1.2
2016-11-12T00:38:07.639Z,1.2
2016-11-12T00:38:17.613Z,1.2
2016-11-12T00:38:27.605Z,1.2
2016-11-12T00:38:37.600Z,1.2
2016-11-12T00:38:47.593Z,1.2
2016-11-12T00:38:57.586Z,1.2
2016-11-12T00:39:07.579Z,1.2
2016-11-12T00:39:17.573Z,1.2
2016-11-12T00:39:27.565Z,1.1
2016-11-12T00:39:37.561Z,1.1
2016-11-12T00:39:47.553Z,1.2
2016-11-12T00:39:57.546Z,1.1
2016-11-12T00:40:07.539Z,1.2
2016-11-12T00:40:17.531Z,1.2
2016-11-12T00:40:27.525Z,1.2
2016-11-12T00:40:37.516Z,1.2
2016-11-12T00:40:47.512Z,1.2
2016-11-12T00:40:57.506Z,1.2
2016-11-12T00:41:07.499Z,1.2
2016-11-12T00:41:17.491Z,1.2
2016-11-12T00:41:27.486Z,1.2
2016-11-12T00:41:37.477Z,1.2
2016-11-12T00:41:47.470Z,1.2
2016-11-12T00:41:57.463Z,1.1
2016-11-12T00:42:07.457Z,1.1
2016-11-12T00:42:17.452Z,1.1
2016-11-12T00:42:27.443Z,1.1
2016-11-12T00:42:37.437Z,1.2
2016-11-12T00:42:47.432Z,1.1
2016-11-12T00:42:57.424Z,1.1
2016-11-12T00:43:07.418Z,1.1
2016-11-12T00:43:17.410Z,1.1
2016-11-12T00:43:27.403Z,1.1
2016-11-12T00:43:37.397Z,1.1
2016-11-12T00:43:47.421Z,1.1
2016-11-12T00:43:57.383Z,1.1
2016-11-12T00:44:07.376Z,1.1
2016-11-12T00:44:17.393Z,1.1
2016-11-12T00:44:27.364Z,1.1
2016-11-12T00:44:37.356Z,1.1
2016-11-12T00:44:47.351Z,1.1
2016-11-12T00:44:57.344Z,1.1
2016-11-12T00:45:07.338Z,1.1
2016-11-12T00:45:17.330Z,1.1
2016-11-12T00:45:27.326Z,1.1
2016-11-12T00:45:37.318Z,1.1
2016-11-12T00:45:47.311Z,1.1
2016-11-12T00:45:57.302Z,1.1
2016-11-12T00:46:07.295Z,1.1
2016-11-12T00:46:17.291Z,1.1
2016-11-12T00:46:27.283Z,1.1
2016-11-12T00:46:37.277Z,1.1
2016-11-12T00:46:47.269Z,1.2
2016-11-12T00:46:57.263Z,1.1
2016-11-12T00:47:07.257Z,1.1
2016-11-12T00:47:17.249Z,1.1
2016-11-12T00:47:27.242Z,1.1
2016-11-12T00:47:37.236Z,1.1
2016-11-12T00:47:47.229Z,1.1
2016-11-12T00:47:57.221Z,1.1
2016-11-12T00:48:07.216Z,1.2
2016-11-12T00:48:17.211Z,1.2
2016-11-12T00:48:27.202Z,1.2
2016-11-12T00:48:37.222Z,1.2
2016-11-12T00:48:47.294Z,1.2
2016-11-12T00:48:57.182Z,1.2
2016-11-12T00:49:07.173Z,1.2
2016-11-12T00:49:17.168Z,1.2
2016-11-12T00:49:27.162Z,1.2
2016-11-12T00:49:37.156Z,1.2
2016-11-12T00:49:47.148Z,1.2
2016-11-12T00:49:57.141Z,1.2
2016-11-12T00:50:07.134Z,1.2
2016-11-12T00:50:17.128Z,1.2
2016-11-12T00:50:27.122Z,1.2
2016-11-12T00:50:37.115Z,1.2
2016-11-12T00:50:47.108Z,1.2
2016-11-12T00:50:57.120Z,1.2
2016-11-12T00:51:07.096Z,1.2
2016-11-12T00:51:17.088Z,1.2
2016-11-12T00:51:27.081Z,1.2
2016-11-12T00:51:37.076Z,1.2
2016-11-12T00:51:47.068Z,1.1
2016-11-12T00:51:57.061Z,1.1
2016-11-12T00:52:07.054Z,1.1
2016-11-12T00:52:17.047Z,1.1
2016-11-12T00:52:27.042Z,1.1
2016-11-12T00:52:37.033Z,1.1
2016-11-12T00:52:47.027Z,1.1
2016-11-12T00:52:57.021Z,1.1
2016-11-12T00:53:07.014Z,1.1
2016-11-12T00:53:17.007Z,1.1
2016-11-12T00:53:27.001Z,1.1
2016-11-12T00:53:36.993Z,1.1
2016-11-12T00:53:46.987Z,1.1
2016-11-12T00:53:56.981Z,1.1
2016-11-12T00:54:06.973Z,1.1
2016-11-12T00:54:16.967Z,1.1
2016-11-12T00:54:26.960Z,1.1
2016-11-12T00:54:36.954Z,1.1
2016-11-12T00:54:46.946Z,1.1
2016-11-12T00:54:56.939Z,1.1
2016-11-12T00:55:06.934Z,1.1
2016-11-12T00:55:16.926Z,1.1
2016-11-12T00:55:26.919Z,1.1
2016-11-12T00:55:36.911Z,1.1
2016-11-12T00:55:46.906Z,1.1
2016-11-12T00:55:56.898Z,1.1
2016-11-12T00:56:06.893Z,1.1
2016-11-12T00:56:16.884Z,1.1
2016-11-12T00:56:26.880Z,1.1
2016-11-12T00:56:36.871Z,1.1
2016-11-12T00:56:46.866Z,1.1
2016-11-12T00:56:56.861Z,1.1
2016-11-12T00:57:06.853Z,1.1
2016-11-12T00:57:16.845Z,1.1
2016-11-12T00:57:26.841Z,1.1
2016-11-12T00:57:36.831Z,1.1
2016-11-12T00:57:46.825Z,1.1
2016-11-12T00:57:56.818Z,1.1
2016-11-12T00:58:06.811Z,1.1
2016-11-12T00:58:16.804Z,1.1
2016-11-12T00:58:26.799Z,1.1
2016-11-12T00:58:36.791Z,1.1
2016-11-12T00:58:46.787Z,1.1
2016-11-12T00:58:56.778Z,1.1
2016-11-12T00:59:06.771Z,1.1
2016-11-12T00:59:16.765Z,1.1
2016-11-12T00:59:26.759Z,1.1
2016-11-12T00:59:36.752Z,1.1
2016-11-12T00:59:46.745Z,1.1
2016-11-12T00:59:56.740Z,1.1
2016-11-12T01:00:06.732Z,1.1
2016-11-12T01:00:16.721Z,1.1
2016-11-12T01:00:26.719Z,1.1
2016-11-12T01:00:36.713Z,1.1
2016-11-12T01:00:46.705Z,1.1
2016-11-12T01:00:56.698Z,1.1
2016-11-12T01:01:06.692Z,1.1
2016-11-12T01:01:16.684Z,1.1
2016-11-12T01:01:26.678Z,1.1
2016-11-12T01:01:36.671Z,1.1
2016-11-12T01:01:46.664Z,1.1
2016-11-12T01:01:56.657Z,1.1
2016-11-12T01:02:06.652Z,1.1
2016-11-12T01:02:16.644Z,1.1
2016-11-12T01:02:26.637Z,1.1
2016-11-12T01:02:36.631Z,1.1
2016-11-12T01:02:46.624Z,1.1
2016-11-12T01:02:56.616Z,1.1
2016-11-12T01:03:06.608Z,1.1
2016-11-12T01:03:16.602Z,1.1
2016-11-12T01:03:26.595Z,1.1
2016-11-12T01:03:36.592Z,1.1
2016-11-12T01:03:46.598Z,1.1
2016-11-12T01:03:56.578Z,1.1
2016-11-12T01:04:06.570Z,1.1
2016-11-12T01:04:16.562Z,1.1
2016-11-12T01:04:26.556Z,1.1
2016-11-12T01:04:36.548Z,1.1
2016-11-12T01:04:46.542Z,1.1
2016-11-12T01:04:56.643Z,1.1
2016-11-12T01:05:06.529Z,1.1
2016-11-12T01:05:16.522Z,1.1
2016-11-12T01:05:26.516Z,1.1
2016-11-12T01:05:36.509Z,1.1
2016-11-12T01:05:46.503Z,1.1
2016-11-12T01:05:56.495Z,1.1
2016-11-12T01:06:06.490Z,1.1
2016-11-12T01:06:16.481Z,1.1
2016-11-12T01:06:26.474Z,1.1
2016-11-12T01:06:36.470Z,1.1
2016-11-12T01:06:46.464Z,1.1
2016-11-12T01:06:56.454Z,1.1
2016-11-12T01:07:06.450Z,1.1
2016-11-12T01:07:16.442Z,1.1
2016-11-12T01:07:26.449Z,1.1
2016-11-12T01:07:36.428Z,1.1
2016-11-12T01:07:46.445Z,1.1
2016-11-12T01:07:56.415Z,1.1
2016-11-12T01:08:06.408Z,1.1
2016-11-12T01:08:16.402Z,1.1
2016-11-12T01:08:26.395Z,1.1
2016-11-12T01:08:36.387Z,1.1
2016-11-12T01:08:46.383Z,1.1
2016-11-12T01:08:56.373Z,1.1
2016-11-12T01:09:06.367Z,1.1
2016-11-12T01:09:16.364Z,1.1
2016-11-12T01:09:26.355Z,1.1
2016-11-12T01:09:36.347Z,1.1
2016-11-12T01:09:46.342Z,1.1
2016-11-12T01:09:56.333Z,1.1
2016-11-12T01:10:06.328Z,1.1
2016-11-12T01:10:16.322Z,1.1
2016-11-12T01:10:26.311Z,1.1
2016-11-12T01:10:36.324Z,1.1
2016-11-12T01:10:46.302Z,1.1
2016-11-12T01:10:56.294Z,1.1
2016-11-12T01:11:06.287Z,1.1
2016-11-12T01:11:16.279Z,1.1
2016-11-12T01:11:26.273Z,1.1
2016-11-12T01:11:36.266Z,1.1
2016-11-12T01:11:46.258Z,1.1
2016-11-12T01:11:56.253Z,1.1
2016-11-12T01:12:06.247Z,1.1
2016-11-12T01:12:16.238Z,1.1
2016-11-12T01:12:26.232Z,1.1
2016-11-12T01:12:36.225Z,1.1
2016-11-12T01:12:46.217Z,1.1
2016-11-12T01:12:56.213Z,1.1
2016-11-12T01:13:06.205Z,1.1
2016-11-12T01:13:16.302Z,1.1
2016-11-12T01:13:26.192Z,1.1
2016-11-12T01:13:36.183Z,1.1
2016-11-12T01:13:46.178Z,1.1
2016-11-12T01:13:56.172Z,1.1
2016-11-12T01:14:06.166Z,1.1
2016-11-12T01:14:16.155Z,1.1
2016-11-12T01:14:26.151Z,1.1
2016-11-12T01:14:36.143Z,1.1
2016-11-12T01:14:46.136Z,1.1
2016-11-12T01:14:56.131Z,1.1
2016-11-12T01:15:06.123Z,1.1
2016-11-12T01:15:16.118Z,1.1
2016-11-12T01:15:26.112Z,1.1
2016-11-12T01:15:36.131Z,1.1
2016-11-12T01:15:46.096Z,1.1
2016-11-12T01:15:56.090Z,1.1
2016-11-12T01:16:06.083Z,1.1
2016-11-12T01:16:16.078Z,1.1
2016-11-12T01:16:26.070Z,1.1
2016-11-12T01:16:36.062Z,1.1
2016-11-12T01:16:46.079Z,1.1
2016-11-12T01:16:56.050Z,1.1
2016-11-12T01:17:06.043Z,1.1
2016-11-12T01:17:16.037Z,1.1
2016-11-12T01:17:26.031Z,1.1
2016-11-12T01:17:36.022Z,1.1
2016-11-12T01:17:46.016Z,1.1
2016-11-12T01:17:56.040Z,1.1
2016-11-12T01:18:06.004Z,1.1
2016-11-12T01:18:15.994Z,1.1
2016-11-12T01:18:25.989Z,1.1
2016-11-12T01:18:35.984Z,1.1
2016-11-12T01:18:45.976Z,1.1
2016-11-12T01:18:55.971Z,1.1
2016-11-12T01:19:05.963Z,1
2016-11-12T01:19:15.954Z,1
2016-11-12T01:19:25.947Z,1
2016-11-12T01:19:35.943Z,1
2016-11-12T01:19:45.934Z,1
2016-11-12T01:19:55.930Z,1
2016-11-12T01:20:05.921Z,1
2016-11-12T01:20:15.916Z,1
2016-11-12T01:20:25.910Z,1
2016-11-12T01:20:35.900Z,1
2016-11-12T01:20:46.001Z,1
2016-11-12T01:20:56.222Z,1
2016-11-12T01:21:05.881Z,1
2016-11-12T01:21:15.871Z,1
2016-11-12T01:21:25.868Z,1
2016-11-12T01:21:35.860Z,1
2016-11-12T01:21:45.854Z,1
2016-11-12T01:21:55.847Z,1
2016-11-12T01:22:05.841Z,1
2016-11-12T01:22:15.834Z,1
2016-11-12T01:22:25.845Z,1
2016-11-12T01:22:35.821Z,1
2016-11-12T01:22:45.812Z,1
2016-11-12T01:22:55.807Z,1
2016-11-12T01:23:05.803Z,1
2016-11-12T01:23:15.792Z,1
2016-11-12T01:23:25.787Z,1
2016-11-12T01:23:35.782Z,1
2016-11-12T01:23:45.771Z,1
2016-11-12T01:23:55.766Z,1
2016-11-12T01:24:05.759Z,1
2016-11-12T01:24:15.750Z,1
2016-11-12T01:24:25.747Z,1
2016-11-12T01:24:35.738Z,1
2016-11-12T01:24:45.732Z,1
2016-11-12T01:24:55.726Z,1
2016-11-12T01:25:05.717Z,1
2016-11-12T01:25:15.710Z,1
2016-11-12T01:25:25.706Z,1
2016-11-12T01:25:35.698Z,1
2016-11-12T01:25:45.692Z,1
2016-11-12T01:25:55.684Z,1
2016-11-12T01:26:05.681Z,1.1
2016-11-12T01:26:15.673Z,1.1
2016-11-12T01:26:25.664Z,1
2016-11-12T01:26:35.656Z,1.1
2016-11-12T01:26:45.651Z,1.1
2016-11-12T01:26:55.665Z,1
2016-11-12T01:27:05.637Z,1.1
2016-11-12T01:27:15.630Z,1.1
2016-11-12T01:27:25.623Z,1.1
2016-11-12T01:27:35.618Z,1
2016-11-12T01:27:45.609Z,1.1
2016-11-12T01:27:55.603Z,1.1
2016-11-12T01:28:05.597Z,1.1
2016-11-12T01:28:15.590Z,1.1
2016-11-12T01:28:25.582Z,1.1
2016-11-12T01:28:35.576Z,1.1
2016-11-12T01:28:45.569Z,1.1
2016-11-12T01:28:55.561Z,1.1
2016-11-12T01:29:05.557Z,1.1
2016-11-12T01:29:15.897Z,1.1
2016-11-12T01:29:25.543Z,1.1
2016-11-12T01:29:35.536Z,1.1
2016-11-12T01:29:45.528Z,1.1
2016-11-12T01:29:55.521Z,1.1
2016-11-12T01:30:05.515Z,1.1
2016-11-12T01:30:15.510Z,1.1
2016-11-12T01:30:25.501Z,1.1
2016-11-12T01:30:35.496Z,1.1
2016-11-12T01:30:45.593Z,1
2016-11-12T01:30:55.507Z,1
2016-11-12T01:31:05.475Z,1
2016-11-12T01:31:15.466Z,1
2016-11-12T01:31:25.462Z,1
2016-11-12T01:31:35.480Z,1
2016-11-12T01:31:45.447Z,1
2016-11-12T01:31:55.440Z,1
2016-11-12T01:32:05.437Z,1
2016-11-12T01:32:15.426Z,1
2016-11-12T01:32:25.423Z,1
2016-11-12T01:32:35.413Z,1
2016-11-12T01:32:45.406Z,1
2016-11-12T01:32:55.399Z,1
2016-11-12T01:33:05.394Z,1
2016-11-12T01:33:15.386Z,1
2016-11-12T01:33:25.381Z,1
2016-11-12T01:33:35.374Z,1
2016-11-12T01:33:45.366Z,1
2016-11-12T01:33:55.358Z,1
2016-11-12T01:34:05.354Z,1
2016-11-12T01:34:15.348Z,1
2016-11-12T01:34:25.338Z,1
2016-11-12T01:34:35.332Z,1
2016-11-12T01:34:45.327Z,1
2016-11-12T01:34:55.320Z,1
2016-11-12T01:35:05.313Z,1
2016-11-12T01:35:15.307Z,1
2016-11-12T01:35:25.299Z,1
2016-11-12T01:35:35.293Z,0.9
2016-11-12T01:35:45.283Z,0.9
2016-11-12T01:35:55.279Z,1
2016-11-12T01:36:05.272Z,1
2016-11-12T01:36:15.266Z,1
2016-11-12T01:36:25.259Z,1
2016-11-12T01:36:35.251Z,1
2016-11-12T01:36:45.268Z,1
2016-11-12T01:36:55.239Z,1
2016-11-12T01:37:05.231Z,1
2016-11-12T01:37:15.223Z,1
2016-11-12T01:37:25.218Z,1
2016-11-12T01:37:35.211Z,1
2016-11-12T01:37:45.204Z,1
2016-11-12T01:37:55.198Z,1
2016-11-12T01:38:05.190Z,1
2016-11-12T01:38:15.186Z,1
2016-11-12T01:38:25.198Z,1
2016-11-12T01:38:35.169Z,1
2016-11-12T01:38:45.166Z,1
2016-11-12T01:38:55.157Z,1
2016-11-12T01:39:05.257Z,1
2016-11-12T01:39:15.143Z,1
2016-11-12T01:39:25.138Z,1
2016-11-12T01:39:35.131Z,1
2016-11-12T01:39:45.124Z,1
2016-11-12T01:39:55.120Z,1
2016-11-12T01:40:05.109Z,1
2016-11-12T01:40:15.103Z,1
2016-11-12T01:40:25.759Z,1
2016-11-12T01:40:35.110Z,1
2016-11-12T01:40:45.083Z,1
2016-11-12T01:40:55.076Z,1
2016-11-12T01:41:05.068Z,1
2016-11-12T01:41:15.061Z,1
2016-11-12T01:41:25.055Z,1
2016-11-12T01:41:35.048Z,1
2016-11-12T01:41:45.044Z,1
2016-11-12T01:41:55.035Z,1
2016-11-12T01:42:05.027Z,1
2016-11-12T01:42:15.022Z,1
2016-11-12T01:42:25.015Z,1
2016-11-12T01:42:35.009Z,1
2016-11-12T01:42:45.003Z,1
2016-11-12T01:42:54.995Z,1
2016-11-12T01:43:04.988Z,1
2016-11-12T01:43:14.980Z,1
2016-11-12T01:43:24.976Z,1
2016-11-12T01:43:34.967Z,1
2016-11-12T01:43:44.962Z,1
2016-11-12T01:43:54.955Z,1
2016-11-12T01:44:04.948Z,1
2016-11-12T01:44:14.940Z,1
2016-11-12T01:44:24.939Z,0.9
2016-11-12T01:44:34.947Z,0.9
2016-11-12T01:44:44.921Z,0.9
2016-11-12T01:44:54.914Z,0.9
2016-11-12T01:45:04.906Z,0.9
2016-11-12T01:45:14.901Z,0.9
2016-11-12T01:45:24.896Z,0.9
2016-11-12T01:45:34.887Z,0.9
2016-11-12T01:45:44.880Z,0.9
2016-11-12T01:45:54.873Z,0.9
2016-11-12T01:46:04.865Z,0.9
2016-11-12T01:46:14.859Z,0.9
2016-11-12T01:46:24.853Z,0.9
2016-11-12T01:46:34.846Z,0.9
2016-11-12T01:46:44.841Z,0.9
2016-11-12T01:46:54.834Z,0.9
2016-11-12T01:47:04.825Z,0.9
2016-11-12T01:47:14.817Z,0.9
2016-11-12T01:47:24.812Z,0.9
2016-11-12T01:47:34.805Z,0.9
2016-11-12T01:47:44.799Z,0.9
2016-11-12T01:47:54.793Z,0.9
2016-11-12T01:48:04.786Z,0.9
2016-11-12T01:48:14.778Z,0.9
2016-11-12T01:48:24.773Z,0.9
2016-11-12T01:48:34.767Z,0.9
2016-11-12T01:48:44.758Z,0.9
2016-11-12T01:48:54.753Z,0.9
2016-11-12T01:49:04.744Z,0.9
2016-11-12T01:49:14.738Z,0.9
2016-11-12T01:49:24.733Z,0.9
2016-11-12T01:49:35.060Z,0.9
2016-11-12T01:49:44.716Z,0.9
2016-11-12T01:49:54.710Z,0.9
2016-11-12T01:50:04.705Z,0.9
2016-11-12T01:50:14.698Z,0.9
2016-11-12T01:50:24.690Z,0.9
2016-11-12T01:50:34.685Z,0.9
2016-11-12T01:50:44.677Z,0.9
2016-11-12T01:50:54.670Z,0.9
2016-11-12T01:51:04.663Z,0.9
2016-11-12T01:51:14.656Z,0.9
2016-11-12T01:51:24.650Z,0.9
2016-11-12T01:51:34.646Z,0.9
2016-11-12T01:51:44.740Z,0.9
2016-11-12T01:51:54.629Z,1
2016-11-12T01:52:04.626Z,0.9
2016-11-12T01:52:14.616Z,1
2016-11-12T01:52:24.609Z,1
2016-11-12T01:52:34.603Z,1
2016-11-12T01:52:44.596Z,1
2016-11-12T01:52:54.589Z,1
2016-11-12T01:53:04.581Z,1
2016-11-12T01:53:14.577Z,0.9
2016-11-12T01:53:24.570Z,0.9
2016-11-12T01:53:34.563Z,0.9
2016-11-12T01:53:44.556Z,0.9
2016-11-12T01:53:54.548Z,0.9
2016-11-12T01:54:04.542Z,0.9
2016-11-12T01:54:14.535Z,1
2016-11-12T01:54:24.528Z,0.9
2016-11-12T01:54:34.522Z,0.9
2016-11-12T01:54:44.516Z,0.9
2016-11-12T01:54:54.509Z,0.9
2016-11-12T01:55:04.510Z,1
2016-11-12T01:55:14.494Z,1
2016-11-12T01:55:24.491Z,1
2016-11-12T01:55:34.481Z,1
2016-11-12T01:55:44.809Z,1
2016-11-12T01:55:54.468Z,1
2016-11-12T01:56:04.462Z,1
2016-11-12T01:56:14.454Z,1
2016-11-12T01:56:24.447Z,1
2016-11-12T01:56:34.442Z,1
2016-11-12T01:56:44.445Z,0.9
2016-11-12T01:56:54.428Z,1
2016-11-12T01:57:04.420Z,0.9
2016-11-12T01:57:14.413Z,1
2016-11-12T01:57:24.405Z,1
2016-11-12T01:57:34.401Z,1
2016-11-12T01:57:44.392Z,0.9
2016-11-12T01:57:54.386Z,0.9
2016-11-12T01:58:04.380Z,0.9
2016-11-12T01:58:14.375Z,0.9
2016-11-12T01:58:24.365Z,0.9
2016-11-12T01:58:34.361Z,0.9
2016-11-12T01:58:44.354Z,1
2016-11-12T01:58:54.344Z,0.9
2016-11-12T01:59:04.338Z,0.9
2016-11-12T01:59:14.330Z,0.9
2016-11-12T01:59:24.325Z,0.9
2016-11-12T01:59:34.321Z,0.9
2016-11-12T01:59:44.311Z,0.9
2016-11-12T01:59:54.305Z,0.9
2016-11-12T02:00:04.300Z,0.9
2016-11-12T02:00:14.291Z,0.9
2016-11-12T02:00:24.285Z,0.9
2016-11-12T02:00:34.279Z,0.9
2016-11-12T02:00:44.272Z,0.9
2016-11-12T02:00:54.265Z,0.9
2016-11-12T02:01:04.257Z,0.9
2016-11-12T02:01:14.252Z,0.9
2016-11-12T02:01:24.579Z,0.9
2016-11-12T02:01:34.239Z,0.9
2016-11-12T02:01:44.336Z,0.9
2016-11-12T02:01:54.223Z,0.9
2016-11-12T02:02:04.218Z,0.9
2016-11-12T02:02:14.214Z,0.9
2016-11-12T02:02:24.203Z,0.9
2016-11-12T02:02:34.201Z,0.9
2016-11-12T02:02:44.190Z,0.9
2016-11-12T02:02:54.183Z,0.9
2016-11-12T02:03:04.178Z,0.9
2016-11-12T02:03:14.504Z,0.9
2016-11-12T02:03:24.498Z,0.9
2016-11-12T02:03:34.157Z,0.9
2016-11-12T02:03:44.150Z,0.9
2016-11-12T02:03:54.144Z,0.9
2016-11-12T02:04:04.475Z,0.9
2016-11-12T02:04:14.129Z,0.9
2016-11-12T02:04:24.124Z,0.9
2016-11-12T02:04:34.115Z,0.9
2016-11-12T02:04:44.111Z,0.9
2016-11-12T02:04:54.105Z,0.9
2016-11-12T02:05:04.095Z,0.9
2016-11-12T02:05:14.088Z,0.9
2016-11-12T02:05:24.083Z,0.9
2016-11-12T02:05:34.079Z,0.9
2016-11-12T02:05:44.069Z,0.9
2016-11-12T02:05:54.061Z,0.9
2016-11-12T02:06:04.055Z,0.9
2016-11-12T02:06:14.051Z,0.9
2016-11-12T02:06:24.042Z,0.9
2016-11-12T02:06:34.035Z,0.9
2016-11-12T02:06:44.028Z,0.9
2016-11-12T02:06:54.021Z,0.9
2016-11-12T02:07:04.015Z,0.9
2016-11-12T02:07:14.007Z,0.9
2016-11-12T02:07:24.001Z,0.9
2016-11-12T02:07:33.995Z,0.9
2016-11-12T02:07:43.989Z,0.9
2016-11-12T02:07:53.982Z,0.9
2016-11-12T02:08:03.974Z,0.9
2016-11-12T02:08:13.967Z,0.9
2016-11-12T02:08:24.295Z,0.9
2016-11-12T02:08:33.956Z,0.9
2016-11-12T02:08:43.947Z,0.9
2016-11-12T02:08:53.939Z,0.9
2016-11-12T02:09:03.933Z,0.9
2016-11-12T02:09:13.927Z,0.9
2016-11-12T02:09:23.920Z,0.9
2016-11-12T02:09:33.916Z,0.9
2016-11-12T02:09:43.907Z,0.9
2016-11-12T02:09:53.899Z,0.9
2016-11-12T02:10:03.893Z,0.9
2016-11-12T02:10:13.885Z,0.9
2016-11-12T02:10:23.879Z,0.9
2016-11-12T02:10:33.870Z,0.9
2016-11-12T02:10:43.875Z,0.9
2016-11-12T02:10:53.859Z,0.9
2016-11-12T02:11:03.852Z,0.9
2016-11-12T02:11:13.847Z,0.9
2016-11-12T02:11:23.838Z,0.9
2016-11-12T02:11:33.832Z,0.9
2016-11-12T02:11:43.826Z,0.9
2016-11-12T02:11:53.819Z,0.9
2016-11-12T02:12:03.811Z,0.9
2016-11-12T02:12:13.814Z,0.9
2016-11-12T02:12:23.904Z,1
2016-11-12T02:12:33.791Z,1
2016-11-12T02:12:43.784Z,0.9
2016-11-12T02:12:53.778Z,0.9
2016-11-12T02:13:03.771Z,0.9
2016-11-12T02:13:13.764Z,0.9
2016-11-12T02:13:23.758Z,0.9
2016-11-12T02:13:33.751Z,1
2016-11-12T02:13:43.747Z,1
2016-11-12T02:13:53.735Z,1
2016-11-12T02:14:03.731Z,1
2016-11-12T02:14:13.723Z,1
2016-11-12T02:14:23.721Z,1
2016-11-12T02:14:33.712Z,0.9
2016-11-12T02:14:43.704Z,0.9
2016-11-12T02:14:53.697Z,1
2016-11-12T02:15:04.024Z,1
2016-11-12T02:15:13.685Z,1
2016-11-12T02:15:23.676Z,1
2016-11-12T02:15:33.670Z,1
2016-11-12T02:15:43.662Z,1
2016-11-12T02:15:53.657Z,1
2016-11-12T02:16:03.651Z,1
2016-11-12T02:16:13.642Z,1
2016-11-12T02:16:23.635Z,1
2016-11-12T02:16:33.628Z,1
2016-11-12T02:16:43.622Z,1
2016-11-12T02:16:53.616Z,1
2016-11-12T02:17:03.609Z,1
2016-11-12T02:17:13.936Z,1
2016-11-12T02:17:23.595Z,1
2016-11-12T02:17:33.923Z,1
2016-11-12T02:17:43.581Z,0.9
2016-11-12T02:17:53.574Z,1
2016-11-12T02:18:03.568Z,1
2016-11-12T02:18:13.561Z,0.9
2016-11-12T02:18:23.554Z,0.9
2016-11-12T02:18:33.572Z,0.9
2016-11-12T02:18:43.646Z,0.9
2016-11-12T02:18:53.533Z,0.9
2016-11-12T02:19:03.529Z,0.9
2016-11-12T02:19:13.522Z,0.9
2016-11-12T02:19:23.515Z,0.9
2016-11-12T02:19:33.507Z,0.9
2016-11-12T02:19:43.500Z,0.9